createdAt,value
2023-05-14T00:00:15.987Z,12.97
2023-05-14T00:03:41.024Z,12.87
2023-05-14T00:06:43.555Z,12.94
2023-05-14T00:09:46.499Z,12.88
2023-05-14T00:12:48.874Z,12.84
2023-05-14T00:15:51.886Z,12.83
2023-05-14T00:18:54.473Z,12.84
2023-05-14T00:21:57.396Z,12.84
2023-05-14T00:24:59.698Z,13.05
2023-05-14T00:28:03.025Z,12.92
2023-05-14T00:31:05.529Z,13.01
2023-05-14T00:34:08.397Z,12.93
2023-05-14T00:37:10.929Z,12.93
2023-05-14T00:40:25.616Z,12.86
2023-05-14T00:43:28.748Z,12.83
2023-05-14T00:46:31.870Z,12.86
2023-05-14T00:49:34.397Z,12.84
2023-05-14T00:52:37.928Z,12.92
2023-05-14T00:55:41.090Z,12.97
2023-05-14T00:58:44.327Z,12.86
2023-05-14T01:01:46.714Z,12.87
2023-05-14T01:04:50.029Z,12.86
2023-05-14T01:08:00.442Z,12.89
2023-05-14T01:11:09.636Z,12.90
2023-05-14T01:14:18.259Z,12.89
2023-05-14T01:17:22.966Z,12.79
2023-05-14T01:20:26.627Z,12.76
2023-05-14T01:23:29.713Z,12.72
2023-05-14T01:26:32.038Z,12.74
2023-05-14T01:29:36.713Z,12.74
2023-05-14T01:32:39.776Z,12.65
2023-05-14T01:35:43.348Z,12.67
2023-05-14T01:38:47.248Z,12.65
2023-05-14T01:41:51.151Z,12.67
2023-05-14T01:44:54.396Z,12.68
2023-05-14T01:47:57.952Z,12.68
2023-05-14T01:51:00.344Z,12.68
2023-05-14T01:54:03.308Z,12.59
2023-05-14T01:57:05.648Z,12.59
2023-05-14T02:00:09.388Z,12.61
2023-05-14T02:03:16.225Z,12.60
2023-05-14T02:06:19.186Z,12.60
2023-05-14T02:09:21.600Z,12.57
2023-05-14T02:12:24.505Z,12.57
2023-05-14T02:15:27.105Z,12.51
2023-05-14T02:18:29.806Z,12.47
2023-05-14T02:21:32.579Z,12.44
2023-05-14T02:24:35.348Z,12.55
2023-05-14T02:27:38.353Z,12.55
2023-05-14T02:30:41.269Z,12.49
2023-05-14T02:33:44.034Z,12.47
2023-05-14T02:36:46.647Z,12.44
2023-05-14T02:39:49.533Z,12.43
2023-05-14T02:42:52.184Z,12.47
2023-05-14T02:45:55.264Z,12.48
2023-05-14T02:48:58.194Z,12.48
2023-05-14T02:52:00.978Z,12.48
2023-05-14T02:55:03.806Z,12.46
2023-05-14T02:58:06.466Z,12.47
2023-05-14T03:01:09.172Z,12.55
2023-05-14T03:04:12.492Z,12.58
2023-05-14T03:07:15.104Z,12.56
2023-05-14T03:10:17.824Z,12.53
2023-05-14T03:13:20.848Z,12.48
2023-05-14T03:16:23.739Z,12.51
2023-05-14T03:19:26.357Z,12.52
2023-05-14T03:22:29.101Z,12.62
2023-05-14T03:25:31.892Z,12.58
2023-05-14T03:28:34.474Z,12.58
2023-05-14T03:31:37.207Z,12.63
2023-05-14T03:34:40.607Z,12.57
2023-05-14T03:37:43.300Z,12.62
2023-05-14T03:40:46.338Z,12.57
2023-05-14T03:43:48.900Z,12.57
2023-05-14T03:46:51.490Z,12.58
2023-05-14T03:49:54.099Z,12.72
2023-05-14T03:52:56.644Z,12.62
2023-05-14T03:55:59.233Z,12.61
2023-05-14T03:59:01.800Z,12.69
2023-05-14T04:02:04.503Z,12.72
2023-05-14T04:05:07.702Z,12.60
2023-05-14T04:08:10.651Z,12.67
2023-05-14T04:11:13.434Z,12.74
2023-05-14T04:14:16.024Z,12.66
2023-05-14T04:17:18.945Z,12.63
2023-05-14T04:20:21.776Z,12.92
2023-05-14T04:23:25.640Z,12.73
2023-05-14T04:26:28.491Z,12.69
2023-05-14T04:29:31.189Z,12.61
2023-05-14T04:32:33.818Z,12.57
2023-05-14T04:35:36.449Z,12.57
2023-05-14T04:38:39.044Z,12.59
2023-05-14T04:41:42.705Z,12.59
2023-05-14T04:44:45.415Z,12.77
2023-05-14T04:47:48.120Z,12.76
2023-05-14T04:50:50.800Z,12.67
2023-05-14T04:53:53.419Z,12.64
2023-05-14T04:56:56.017Z,12.65
2023-05-14T04:59:58.731Z,12.61
2023-05-14T05:03:01.374Z,12.71
2023-05-14T05:06:04.122Z,12.73
2023-05-14T05:09:06.718Z,12.72
2023-05-14T05:12:09.428Z,12.87
2023-05-14T05:15:12.000Z,12.70
2023-05-14T05:18:14.585Z,12.67
2023-05-14T05:21:17.227Z,12.65
2023-05-14T05:24:19.853Z,12.69
2023-05-14T05:27:22.693Z,12.72
2023-05-14T05:30:25.515Z,12.82
2023-05-14T05:33:28.333Z,12.78
2023-05-14T05:36:31.666Z,12.76
2023-05-14T05:39:35.199Z,12.82
2023-05-14T05:42:38.103Z,12.71
2023-05-14T05:45:41.554Z,12.69
2023-05-14T05:48:44.244Z,12.71
2023-05-14T05:51:46.971Z,12.81
2023-05-14T05:54:49.653Z,12.79
2023-05-14T05:57:52.359Z,12.81
2023-05-14T06:00:55.221Z,12.75
2023-05-14T06:03:58.673Z,12.87
2023-05-14T06:07:01.036Z,12.81
2023-05-14T06:10:04.079Z,12.81
2023-05-14T06:13:06.938Z,12.89
2023-05-14T06:16:10.082Z,12.80
2023-05-14T06:19:12.666Z,12.76
2023-05-14T06:22:15.982Z,12.79
2023-05-14T06:25:18.635Z,12.77
2023-05-14T06:28:21.598Z,12.84
2023-05-14T06:31:24.074Z,12.85
2023-05-14T06:34:26.988Z,12.82
2023-05-14T06:37:29.762Z,12.74
2023-05-14T06:40:32.618Z,12.73
2023-05-14T06:43:34.937Z,12.77
2023-05-14T06:46:38.131Z,12.81
2023-05-14T06:49:40.515Z,12.86
2023-05-14T06:52:45.158Z,12.91
2023-05-14T06:55:48.064Z,12.96
2023-05-14T06:58:51.166Z,12.99
2023-05-14T07:01:53.543Z,13.02
2023-05-14T07:04:56.454Z,13.04
2023-05-14T07:07:58.814Z,13.13
2023-05-14T07:11:01.721Z,13.20
2023-05-14T07:14:03.985Z,13.27
2023-05-14T07:17:07.467Z,13.33
2023-05-14T07:20:10.512Z,13.41
2023-05-14T07:23:13.383Z,13.46
2023-05-14T07:26:15.792Z,13.56
2023-05-14T07:29:18.632Z,13.74
2023-05-14T07:32:20.976Z,13.88
2023-05-14T07:35:23.956Z,13.88
2023-05-14T07:38:26.305Z,13.94
2023-05-14T07:41:29.176Z,14.02
2023-05-14T07:44:31.531Z,14.09
2023-05-14T07:47:34.544Z,14.24
2023-05-14T07:50:37.261Z,14.23
2023-05-14T07:53:40.128Z,14.31
2023-05-14T07:56:42.492Z,14.34
2023-05-14T07:59:45.377Z,14.37
2023-05-14T08:02:49.344Z,14.42
2023-05-14T08:05:52.625Z,14.45
2023-05-14T08:08:54.966Z,14.68
2023-05-14T08:11:57.816Z,14.66
2023-05-14T08:15:00.234Z,14.56
2023-05-14T08:18:03.858Z,14.51
2023-05-14T08:21:06.254Z,14.46
2023-05-14T08:24:09.158Z,14.44
2023-05-14T08:27:11.531Z,14.46
2023-05-14T08:30:14.663Z,14.41
2023-05-14T08:33:18.117Z,14.48
2023-05-14T08:36:20.978Z,14.40
2023-05-14T08:39:23.300Z,14.38
2023-05-14T08:42:27.007Z,14.45
2023-05-14T08:45:33.914Z,14.42
2023-05-14T08:48:40.815Z,14.42
2023-05-14T08:51:44.784Z,14.47
2023-05-14T08:54:48.404Z,14.46
2023-05-14T08:57:50.837Z,14.64
2023-05-14T09:00:53.825Z,14.79
2023-05-14T09:03:56.676Z,14.60
2023-05-14T09:07:01.424Z,14.53
2023-05-14T09:10:04.584Z,14.47
2023-05-14T09:13:07.756Z,14.59
2023-05-14T09:16:10.056Z,14.72
2023-05-14T09:19:13.328Z,14.53
2023-05-14T09:22:17.599Z,14.49
2023-05-14T09:25:20.488Z,14.43
2023-05-14T09:28:22.975Z,14.39
2023-05-14T09:31:25.890Z,14.39
2023-05-14T09:34:29.429Z,14.35
2023-05-14T09:37:36.121Z,14.37
2023-05-14T09:40:38.458Z,14.48
2023-05-14T09:43:44.297Z,14.48
2023-05-14T09:46:46.997Z,14.42
2023-05-14T09:49:50.797Z,14.37
2023-05-14T09:52:55.173Z,14.36
2023-05-14T09:55:58.094Z,14.38
2023-05-14T09:59:00.412Z,14.42
2023-05-14T10:02:05.608Z,14.54
2023-05-14T10:05:09.392Z,14.55
2023-05-14T10:08:24.587Z,14.44
2023-05-14T10:11:31.064Z,14.41
2023-05-14T10:14:36.007Z,14.43
2023-05-14T10:17:41.039Z,14.51
2023-05-14T10:20:44.156Z,14.57
2023-05-14T10:23:46.992Z,14.76
2023-05-14T10:26:49.793Z,14.99
2023-05-14T10:29:56.319Z,15.15
2023-05-14T10:33:09.314Z,15.18
2023-05-14T10:36:12.063Z,15.14
2023-05-14T10:39:14.805Z,15.22
2023-05-14T10:42:24.784Z,15.03
2023-05-14T10:45:27.461Z,14.91
2023-05-14T10:48:30.109Z,14.97
2023-05-14T10:51:33.462Z,14.85
2023-05-14T10:54:36.833Z,14.70
2023-05-14T10:57:40.639Z,14.66
2023-05-14T11:00:47.546Z,14.68
2023-05-14T11:03:53.197Z,14.66
2023-05-14T11:06:56.727Z,14.73
2023-05-14T11:10:03.703Z,14.66
2023-05-14T11:13:06.416Z,14.83
2023-05-14T11:16:21.793Z,14.80
2023-05-14T11:19:26.374Z,14.62
2023-05-14T11:22:29.142Z,14.59
2023-05-14T11:25:31.850Z,14.70
2023-05-14T11:28:34.485Z,14.62
2023-05-14T11:31:37.216Z,14.56
2023-05-14T11:34:40.741Z,14.50
2023-05-14T11:37:43.970Z,14.56
2023-05-14T11:40:54.024Z,14.49
2023-05-14T11:43:57.965Z,14.58
2023-05-14T11:47:02.165Z,14.50
2023-05-14T11:50:05.600Z,14.56
2023-05-14T11:53:09.011Z,14.59
2023-05-14T11:56:12.188Z,14.48
2023-05-14T11:59:17.054Z,14.39
2023-05-14T12:02:19.910Z,14.31
2023-05-14T12:05:23.034Z,14.30
2023-05-14T12:08:29.538Z,14.35
2023-05-14T12:11:32.924Z,14.43
2023-05-14T12:14:37.815Z,14.39
2023-05-14T12:17:41.131Z,14.30
2023-05-14T12:20:51.241Z,14.30
2023-05-14T12:23:59.236Z,14.27
2023-05-14T12:27:02.466Z,14.23
2023-05-14T12:33:11.829Z,14.38
2023-05-14T12:39:22.654Z,14.23
2023-05-14T12:42:25.648Z,14.18
2023-05-14T12:45:27.964Z,14.17
2023-05-14T12:48:31.465Z,14.11
2023-05-14T12:51:33.931Z,14.20
2023-05-14T12:54:36.899Z,14.19
2023-05-14T12:57:39.806Z,14.13
2023-05-14T13:00:43.169Z,14.12
2023-05-14T13:03:45.739Z,14.14
2023-05-14T13:06:48.672Z,14.03
2023-05-14T13:09:50.992Z,13.99
2023-05-14T13:12:53.889Z,14.00
2023-05-14T13:15:56.367Z,14.02
2023-05-14T13:18:59.663Z,14.14
2023-05-14T13:22:02.238Z,14.06
2023-05-14T13:25:05.932Z,14.00
2023-05-14T13:28:08.495Z,13.96
2023-05-14T13:31:12.571Z,13.85
2023-05-14T13:34:15.028Z,13.81
2023-05-14T13:37:18.033Z,13.82
2023-05-14T13:40:22.030Z,13.85
2023-05-14T13:43:25.087Z,13.88
2023-05-14T13:46:27.472Z,13.83
2023-05-14T13:49:30.395Z,13.93
2023-05-14T13:52:32.873Z,13.88
2023-05-14T13:55:35.841Z,13.95
2023-05-14T13:58:38.187Z,13.82
2023-05-14T14:01:43.337Z,13.77
2023-05-14T14:04:46.078Z,13.77
2023-05-14T14:07:50.503Z,13.76
2023-05-14T14:10:55.885Z,13.79
2023-05-14T14:13:58.534Z,13.78
2023-05-14T14:17:01.368Z,13.78
2023-05-14T14:20:05.965Z,13.90
2023-05-14T14:23:08.939Z,13.81
2023-05-14T14:26:11.681Z,13.80
2023-05-14T14:29:14.507Z,13.78
2023-05-14T14:32:17.339Z,13.73
2023-05-14T14:35:20.211Z,13.70
2023-05-14T14:38:22.937Z,13.68
2023-05-14T14:41:26.677Z,13.66
2023-05-14T14:44:29.526Z,13.67
2023-05-14T14:47:32.505Z,13.66
2023-05-14T14:50:35.178Z,13.67
2023-05-14T14:53:37.821Z,13.70
2023-05-14T14:56:40.659Z,13.69
2023-05-14T14:59:43.353Z,13.68
2023-05-14T15:02:46.058Z,13.64
2023-05-14T15:05:49.266Z,13.65
2023-05-14T15:08:51.886Z,13.62
2023-05-14T15:11:54.664Z,13.57
2023-05-14T15:14:57.353Z,13.53
2023-05-14T15:18:00.013Z,13.60
2023-05-14T15:21:02.913Z,13.56
2023-05-14T15:24:05.659Z,13.47
2023-05-14T15:27:08.282Z,13.43
2023-05-14T15:30:11.537Z,13.40
2023-05-14T15:33:17.916Z,13.39
2023-05-14T15:36:20.608Z,13.36
2023-05-14T15:39:23.250Z,13.48
2023-05-14T15:42:27.034Z,13.33
2023-05-14T15:45:29.638Z,13.27
2023-05-14T15:48:32.568Z,13.24
2023-05-14T15:51:35.345Z,13.20
2023-05-14T15:54:37.980Z,13.20
2023-05-14T15:57:40.754Z,13.15
2023-05-14T16:00:43.423Z,13.36
2023-05-14T16:03:46.924Z,13.16
2023-05-14T16:06:49.364Z,13.11
2023-05-14T16:09:52.303Z,13.06
2023-05-14T16:12:54.668Z,13.08
2023-05-14T16:15:59.912Z,13.05
2023-05-14T16:19:02.639Z,13.04
2023-05-14T16:22:06.108Z,13.12
2023-05-14T16:25:08.500Z,13.06
2023-05-14T16:28:11.474Z,13.08
2023-05-14T16:31:15.329Z,13.05
2023-05-14T16:34:18.282Z,13.03
2023-05-14T16:37:20.667Z,13.02
2023-05-14T16:40:24.186Z,13.02
2023-05-14T16:43:26.717Z,12.98
2023-05-14T16:46:30.658Z,13.02
2023-05-14T16:49:33.126Z,12.99
2023-05-14T16:52:36.061Z,12.95
2023-05-14T16:55:38.479Z,12.92
2023-05-14T16:58:41.516Z,12.90
2023-05-14T17:01:44.160Z,12.92
2023-05-14T17:04:47.142Z,12.94
2023-05-14T17:07:49.530Z,13.00
2023-05-14T17:10:52.415Z,12.97
2023-05-14T17:13:54.830Z,12.98
2023-05-14T17:16:57.675Z,12.97
2023-05-14T17:20:00.841Z,12.99
2023-05-14T17:23:03.625Z,13.01
2023-05-14T17:26:06.260Z,13.02
2023-05-14T17:29:09.251Z,13.01
2023-05-14T17:32:11.919Z,13.07
2023-05-14T17:35:14.564Z,13.01
2023-05-14T17:38:17.297Z,13.02
2023-05-14T17:41:19.948Z,13.00
2023-05-14T17:44:22.578Z,13.04
2023-05-14T17:47:25.296Z,12.95
2023-05-14T17:50:27.952Z,12.93
2023-05-14T17:53:30.620Z,12.94
2023-05-14T17:56:33.435Z,12.93
2023-05-14T17:59:36.284Z,12.99
2023-05-14T18:02:39.201Z,12.92
2023-05-14T18:05:42.046Z,12.94
2023-05-14T18:08:44.623Z,12.90
2023-05-14T18:11:47.212Z,12.88
2023-05-14T18:14:49.830Z,12.87
2023-05-14T18:17:52.841Z,12.88
2023-05-14T18:20:55.669Z,12.93
2023-05-14T18:23:58.445Z,12.93
2023-05-14T18:27:01.168Z,12.94
2023-05-14T18:30:03.975Z,12.93
2023-05-14T18:33:06.739Z,13.18
2023-05-14T18:36:09.812Z,13.08
2023-05-14T18:39:12.612Z,13.03
2023-05-14T18:42:16.674Z,12.96
2023-05-14T18:45:19.413Z,12.94
2023-05-14T18:48:22.034Z,13.06
2023-05-14T18:51:24.914Z,12.99
2023-05-14T18:54:27.488Z,13.00
2023-05-14T18:57:32.184Z,13.04
2023-05-14T19:00:34.979Z,13.02
2023-05-14T19:03:37.727Z,13.10
2023-05-14T19:06:40.633Z,13.03
2023-05-14T19:09:43.261Z,13.01
2023-05-14T19:12:46.454Z,13.01
2023-05-14T19:15:49.073Z,13.03
2023-05-14T19:18:51.867Z,13.01
2023-05-14T19:21:54.557Z,13.03
2023-05-14T19:24:57.135Z,13.05
2023-05-14T19:28:01.624Z,13.07
2023-05-14T19:31:04.835Z,13.04
2023-05-14T19:34:10.875Z,13.08
2023-05-14T19:37:13.936Z,13.09
2023-05-14T19:40:16.623Z,13.11
2023-05-14T19:43:19.929Z,13.18
2023-05-14T19:46:22.670Z,13.14
2023-05-14T19:49:25.352Z,13.26
2023-05-14T19:52:28.169Z,13.14
2023-05-14T19:55:30.882Z,13.08
2023-05-14T19:58:33.608Z,13.07
2023-05-14T20:01:36.594Z,13.17
2023-05-14T20:04:40.055Z,13.07
2023-05-14T20:07:42.605Z,13.08
2023-05-14T20:10:45.557Z,13.06
2023-05-14T20:13:47.934Z,13.06
2023-05-14T20:16:50.941Z,13.08
2023-05-14T20:19:53.292Z,13.08
2023-05-14T20:22:56.220Z,13.09
2023-05-14T20:25:58.585Z,13.10
2023-05-14T20:29:01.575Z,13.14
2023-05-14T20:32:04.198Z,13.11
2023-05-14T20:35:07.517Z,13.10
2023-05-14T20:38:10.178Z,13.12
2023-05-14T20:41:13.187Z,13.16
2023-05-14T20:44:16.373Z,13.15
2023-05-14T20:47:23.810Z,13.14
2023-05-14T20:50:27.813Z,13.13
2023-05-14T20:53:31.200Z,13.16
2023-05-14T20:56:33.675Z,13.14
2023-05-14T20:59:36.559Z,13.14
2023-05-14T21:02:39.323Z,13.13
2023-05-14T21:05:43.705Z,13.11
2023-05-14T21:08:46.037Z,13.16
2023-05-14T21:11:48.957Z,13.14
2023-05-14T21:14:51.295Z,13.15
2023-05-14T21:17:54.382Z,13.16
2023-05-14T21:20:56.766Z,13.15
2023-05-14T21:23:59.628Z,13.24
2023-05-14T21:27:01.922Z,13.21
2023-05-14T21:30:05.204Z,13.19
2023-05-14T21:33:07.555Z,13.19
2023-05-14T21:36:10.798Z,13.18
2023-05-14T21:39:13.792Z,13.20
2023-05-14T21:42:17.669Z,13.20
2023-05-14T21:45:22.190Z,13.25
2023-05-14T21:48:26.405Z,13.23
2023-05-14T21:51:29.917Z,13.16
2023-05-14T21:54:32.808Z,13.22
2023-05-14T21:57:35.128Z,13.19
2023-05-14T22:00:38.831Z,13.20
2023-05-14T22:03:41.791Z,13.19
2023-05-14T22:06:44.489Z,13.14
2023-05-14T22:09:47.128Z,13.11
2023-05-14T22:12:49.806Z,13.13
2023-05-14T22:16:01.582Z,13.11
2023-05-14T22:19:12.003Z,13.15
2023-05-14T22:22:14.739Z,13.13
2023-05-14T22:25:17.559Z,13.13
2023-05-14T22:28:20.837Z,13.13
2023-05-14T22:31:23.580Z,13.19
2023-05-14T22:34:26.240Z,13.18
2023-05-14T22:37:28.812Z,13.19
2023-05-14T22:40:31.444Z,13.20
2023-05-14T22:43:34.020Z,13.21
2023-05-14T22:46:36.744Z,13.20
2023-05-14T22:49:40.288Z,13.19
2023-05-14T22:52:42.856Z,13.21
2023-05-14T22:55:45.801Z,13.21
2023-05-14T22:58:48.454Z,13.23
2023-05-14T23:01:51.256Z,13.24
2023-05-14T23:04:54.052Z,13.24
2023-05-14T23:07:56.711Z,13.24
2023-05-14T23:10:59.265Z,13.24
2023-05-14T23:14:01.816Z,13.24
2023-05-14T23:17:04.470Z,13.24
2023-05-14T23:20:07.437Z,13.25
2023-05-14T23:23:10.090Z,13.25
2023-05-14T23:26:12.673Z,13.23
2023-05-14T23:29:15.357Z,13.23
2023-05-14T23:32:17.973Z,13.28
2023-05-14T23:35:20.699Z,13.27
2023-05-14T23:38:23.342Z,13.24
2023-05-14T23:41:26.581Z,13.24
2023-05-14T23:44:29.166Z,13.26
2023-05-14T23:47:31.811Z,13.25
2023-05-14T23:50:34.692Z,13.26
2023-05-14T23:53:37.441Z,13.26
2023-05-14T23:56:40.680Z,13.25
2023-05-14T23:59:43.278Z,13.29
